Terminal Aerodrome Forecast
Issued by NWS

Home | Current Version | Previous Version | Text Only | Print | Product List | Glossary On
Versions: 1 2 3 4 5 6 7 8 9 10 11 12 13 14
000
FTUS42 TJSJ 230500
TAFJMZ
TAF
TJMZ 230533Z 2306/2406 08008KT P6SM SCT030
     FM231600 09011KT P6SM VCSH SCT040
     FM232200 08008KT P6SM FEW040
      AMD NOT SKED TIL 231600=

USA.gov is the U.S. government's official web portal to all federal, state and local government web resources and services.